Aérodrome :
LOGIN :

S'inscrire | Disclaimer

   EN    FR    IT 

 










Légende :    VFR   VFR Marginal   IFR   IFR Intensif   IFR Très Intensif
Visi : 
Plafond : 
>= 8 km
>= 3000ft
5 à 8 km
1000 à 3000 ft
1500m à 5 km
500 à 1000 ft
800 à 1500m
200 à 500 ft
< 800m
< 200 ft
Symboles :   Orages  Brouillard  Fortes neiges  Fortes précipitations  Vent > 20 kt
SIGMETs :   Divers  Orages  Givrage  Turbulence  Onde Orograph.  Cendres Volcan.






- Altitude de l'aérodrome : 125 ft
- Code IATA : MGL


EDLN - Mönchengladbach

DERNIER METAR :
  • 091920Z 06001KT 9999 FEW022 BKN027 M00/M01 Q1007

METARs EXPIRÉS :
  • 090450Z AUTO 12002KT 9999 // OVC014/// 01/00 Q1006
  • 091850Z 00000KT 9999 FEW022 BKN025 M00/M02 Q1007
  • 091820Z VRB03KT 9999 BKN022 01/M01 Q1006
  • 091750Z 36003KT 9999 OVC022 01/M01 Q1006
  • 091720Z 34003KT 9999 BKN021 01/M01 Q1006
  • 091650Z 34003KT 9999 BKN022 01/M01 Q1006

TAF TAF EDLN
Valide du 09 à 18h jusqu'au 10 à 03h UTC


091700Z 0918/1003 VRB03KT 9999 SCT020
PROB30
TEMPO 0919/0922 4000 BR BKN014
BECMG 0922/1001 3000 BR



MET'MAP, la Météo Aéronautique d'un coup d'oeil ! - Copyright ORBIFLY Décembre 2007 - Disclaimer

ORBIFLY MET'MAP TEAM :

Programmation & Développement : Alexandra Zaïnal
Sur une idée originale de : Baudouin d'Aumeries
Soutien technique & logistique : Manuel Goepfert
Assistance : Marc-Olivier Méhu




SOURCES & CREDITS :

   NOAA